Weather at Airlake Airport

Public forecast

Using degrees Fahrenheit for public forecast. Weather courtesy of forecast.io.

Current aviation weather report (METAR) for Airlake Airport

Retrieved 2021/06/21 02:35 UTC (12 minutes ago):

KLVN 210235Z AUTO 33011G19KT 10SM DZ BKN015 OVC021 16/16 A2966 RMK AO2

Aviation forecast (TAF) for Airlake Airport

Forecast is more than 12 hours old.

Retrieved 2018/02/05 00:21 UTC (3 years ago):

TAF KLVN 052320Z 0600/0624 27006KT P6SM FEW020 FM060200 31009KT P6SM FEW250 FM061700 22004KT P6SM FEW200 FM062200 22004KT P6SM OVC100 AMD NOT SKED